Adair, Illinois
Current Conditions -  °F | °C
As of 2:15 PM on Friday 31 Oct 2014 (Local Time) from KMQB Reporting Station
Scattered Clouds Scattered Clouds  
Wind Chill: 36°   Ceiling: Unl
Heat Index: 44°   Visibility: 10mi
Dew Point: 20°   Wind: 21mph
Humidity: 38%   Direction: 350°N
Pressure: 30.34"   Gusts: 33mph
Location:  40.42°N, 90.5°W
Report Text: KMQB 311915Z AUTO 35018G29KT 10SM SCT050 07/M07 A3034 RMK AO2 T00681066
Loading
Personal Weather Stations






























Interactive Weather Map
Tropical Storm Tracking
New forecast layout! Learn more

10-Day Weather Forecast

Advertisements
Track Severe Weather on mobile